Time;durP1;ratioP1;P1;durP2;ratioP2;P2;SDS_P1;SDS_P2;PMS_P1;PMS_P2;Temp;Humidity;BMP_temperature;BMP_pressure;BME280_temperature;BME280_humidity;BME280_pressure;Samples;Min_cycle;Max_cycle;Signal;HPM_P1;HPM_P2
2023/04/20 00:01:57;;;;;;;;;7.25;6.50;;;;;14.90;58.86;99724.06;5067143;28;45457;-70
2023/04/20 00:04:23;;;;;;;;;6.00;5.00;;;;;14.85;59.20;99724.06;5063914;28;45516;-72
2023/04/20 00:06:50;;;;;;;;;5.75;5.50;;;;;14.79;59.96;99723.22;5074631;28;46430;-67
2023/04/20 00:09:16;;;;;;;;;5.75;5.75;;;;;14.74;59.92;99720.56;5069455;28;45474;-68
2023/04/20 00:11:41;;;;;;;;;7.00;6.00;;;;;14.70;60.40;99717.09;5077679;28;45555;-71
2023/04/20 00:14:07;;;;;;;;;6.00;5.25;;;;;14.63;60.83;99719.72;5065241;28;45477;-72
2023/04/20 00:16:32;;;;;;;;;7.00;6.00;;;;;14.59;60.44;99718.81;5074236;28;45406;-68
2023/04/20 00:18:59;;;;;;;;;6.50;5.00;;;;;14.60;60.15;99711.81;5078107;28;45421;-72
2023/04/20 00:21:24;;;;;;;;;6.75;5.75;;;;;14.57;60.42;99707.44;5077995;28;45611;-72
2023/04/20 00:23:50;;;;;;;;;5.75;5.00;;;;;14.49;60.27;99698.66;5075961;28;45556;-72
2023/04/20 00:26:16;;;;;;;;;6.75;6.00;;;;;14.52;60.44;99710.03;5078026;28;45381;-68
2023/04/20 00:28:42;;;;;;;;;6.00;6.00;;;;;14.51;60.35;99702.16;5077752;28;45407;-72
2023/04/20 00:31:08;;;;;;;;;7.00;6.00;;;;;14.50;60.22;99700.38;5059142;28;45227;-71
2023/04/20 00:33:34;;;;;;;;;5.50;5.50;;;;;14.33;60.47;99679.38;5060130;28;45603;-70
2023/04/20 00:35:59;;;;;;;;;7.50;7.00;;;;;14.33;61.31;99698.63;5081476;28;45522;-72
2023/04/20 00:38:26;;;;;;;;;7.00;6.00;;;;;14.27;61.23;99695.13;5070338;28;46208;-69
2023/04/20 00:40:54;;;;;;;;;7.00;6.00;;;;;14.20;61.90;99698.59;5083200;28;45259;-71
2023/04/20 00:43:21;;;;;;;;;6.25;6.00;;;;;14.00;63.02;99694.19;5083053;28;44713;-70
2023/04/20 00:45:47;;;;;;;;;7.00;6.00;;;;;13.81;63.61;99687.16;5082017;28;45961;-71
2023/04/20 00:48:12;;;;;;;;;7.25;7.00;;;;;13.75;63.04;99689.72;5071121;28;45871;-71
2023/04/20 00:50:39;;;;;;;;;6.50;5.50;;;;;13.73;63.04;99680.13;5069176;28;45405;-72
2023/04/20 00:53:06;;;;;;;;;6.50;5.75;;;;;13.68;63.66;99679.22;5078193;28;45419;-67
2023/04/20 00:55:32;;;;;;;;;9.25;6.50;;;;;13.56;63.67;99670.44;5058702;28;45739;-71
2023/04/20 00:57:58;;;;;;;;;5.00;5.00;;;;;13.54;62.81;99670.41;5077472;28;45501;-68
2023/04/20 01:00:24;;;;;;;;;4.00;4.00;;;;;13.53;63.52;99674.81;5077726;28;45494;-69
2023/04/20 01:02:50;;;;;;;;;5.25;5.25;;;;;13.46;63.68;99654.66;5077466;28;45532;-68
2023/04/20 01:05:16;;;;;;;;;6.00;6.00;;;;;13.47;63.30;99650.28;5073792;28;45838;-68
2023/04/20 01:07:42;;;;;;;;;5.00;5.00;;;;;13.56;62.98;99658.19;5064924;28;45477;-68
2023/04/20 01:10:08;;;;;;;;;8.25;6.00;;;;;13.61;63.05;99663.44;5077502;28;45853;-67
2023/04/20 01:12:34;;;;;;;;;6.75;6.00;;;;;13.61;62.67;99659.09;5056842;28;45398;-70
2023/04/20 01:15:07;;;;;;;;;6.00;6.00;;;;;13.58;62.77;99653.81;5075720;28;45407;-71
2023/04/20 01:17:35;;;;;;;;;6.75;6.75;;;;;13.55;62.46;99640.69;5065782;28;45441;-68
2023/04/20 01:20:01;;;;;;;;;6.25;6.00;;;;;13.51;62.66;99637.19;5050356;28;45533;-69
2023/04/20 01:22:26;;;;;;;;;5.00;5.00;;;;;13.56;63.09;99650.31;5073685;28;45528;-67
2023/04/20 01:24:52;;;;;;;;;7.00;6.25;;;;;13.53;62.82;99647.69;5076658;28;46332;-67
2023/04/20 01:27:18;;;;;;;;;4.00;4.00;;;;;13.53;62.88;99651.19;5072442;28;45401;-67
2023/04/20 01:29:44;;;;;;;;;6.00;5.25;;;;;13.52;62.91;99648.53;5068919;28;45369;-71
2023/04/20 01:32:11;;;;;;;;;6.50;6.50;;;;;13.38;64.32;99650.25;5077859;28;45455;-70
2023/04/20 01:34:36;;;;;;;;;6.25;5.25;;;;;13.26;64.51;99638.78;5076735;28;46095;-67
2023/04/20 01:37:06;;;;;;;;;7.00;6.00;;;;;13.27;63.92;99637.94;5047615;28;45363;-67
2023/04/20 01:39:35;;;;;;;;;6.25;5.00;;;;;13.32;64.40;99643.22;5074531;28;45505;-71
2023/04/20 01:42:00;;;;;;;;;6.00;6.00;;;;;13.21;64.94;99644.88;5077909;28;45374;-70
2023/04/20 01:44:26;;;;;;;;;5.00;5.00;;;;;13.13;65.10;99650.13;5071922;28;45562;-68
2023/04/20 01:46:51;;;;;;;;;6.25;5.75;;;;;13.10;64.72;99652.69;5069822;28;45266;-67
2023/04/20 01:49:17;;;;;;;;;6.00;6.00;;;;;13.06;65.82;99656.19;5058939;28;45634;-67
2023/04/20 01:51:42;;;;;;;;;5.75;5.75;;;;;12.98;65.70;99657.88;5077380;28;45387;-70
2023/04/20 01:54:08;;;;;;;;;7.75;7.25;;;;;12.97;65.41;99653.50;5077387;28;45493;-67
2023/04/20 01:56:33;;;;;;;;;7.75;6.50;;;;;12.89;65.48;99641.25;5077510;28;45295;-67
2023/04/20 01:58:59;;;;;;;;;6.25;5.25;;;;;12.94;65.26;99652.59;5077579;28;46967;-72
2023/04/20 02:01:25;;;;;;;;;5.50;5.50;;;;;12.95;64.56;99645.63;5073873;28;45433;-67
2023/04/20 02:03:50;;;;;;;;;6.00;5.75;;;;;12.98;63.84;99648.25;5064168;28;46186;-67
2023/04/20 02:06:16;;;;;;;;;6.00;6.00;;;;;12.90;64.48;99637.72;5076755;28;45232;-67
2023/04/20 02:08:41;;;;;;;;;6.00;6.00;;;;;12.86;64.80;99640.34;5077771;28;45409;-71
2023/04/20 02:11:07;;;;;;;;;6.50;6.50;;;;;12.83;65.15;99645.53;5077200;28;45807;-70
2023/04/20 02:13:32;;;;;;;;;8.00;7.00;;;;;12.80;65.87;99646.41;5076858;28;45862;-68
2023/04/20 02:15:58;;;;;;;;;6.25;6.00;;;;;12.80;65.79;99643.78;5077114;28;45686;-67
2023/04/20 02:18:23;;;;;;;;;7.00;5.00;;;;;12.44;66.12;99592.03;5077391;28;45839;-71
2023/04/20 02:20:49;;;;;;;;;3.00;3.00;;;;;12.65;66.96;99646.28;5074789;28;45345;-68
2023/04/20 02:23:14;;;;;;;;;6.25;6.00;;;;;12.48;67.53;99649.69;5068299;28;46154;-68
2023/04/20 02:25:40;;;;;;;;;8.00;7.25;;;;;12.40;67.01;99642.63;5056476;28;47041;-70
2023/04/20 02:28:05;;;;;;;;;6.25;6.00;;;;;12.43;67.18;99651.38;5077368;28;45479;-68
2023/04/20 02:30:31;;;;;;;;;7.25;7.00;;;;;12.46;67.47;99661.88;5076733;28;45272;-69
2023/04/20 02:32:58;;;;;;;;;8.00;7.00;;;;;12.41;66.85;99654.84;5076660;28;45452;-67
2023/04/20 02:35:25;;;;;;;;;6.25;5.75;;;;;12.43;66.95;99658.34;5076212;28;45426;-71
2023/04/20 02:37:51;;;;;;;;;6.75;6.50;;;;;12.48;66.80;99670.63;5054633;28;45479;-69
2023/04/20 02:40:16;;;;;;;;;7.00;6.00;;;;;12.47;66.93;99670.63;5046444;28;45292;-71
2023/04/20 02:42:42;;;;;;;;;6.00;6.00;;;;;12.42;66.52;99661.84;5076593;28;46152;-69
2023/04/20 02:45:08;;;;;;;;;6.00;6.00;;;;;12.48;65.89;99664.53;5077097;28;45475;-70
2023/04/20 02:47:34;;;;;;;;;6.00;5.75;;;;;12.46;65.97;99664.50;5076016;28;45432;-70
2023/04/20 02:50:00;;;;;;;;;8.75;7.00;;;;;12.44;66.21;99670.59;5076603;28;45515;-68
2023/04/20 02:52:25;;;;;;;;;8.00;7.00;;;;;12.40;66.50;99672.31;5076508;28;45358;-71
2023/04/20 02:54:51;;;;;;;;;8.00;6.25;;;;;12.30;66.82;99652.16;5043390;28;45494;-73
2023/04/20 02:57:16;;;;;;;;;6.25;6.25;;;;;12.40;66.77;99671.44;5074263;28;45435;-70
2023/04/20 02:59:42;;;;;;;;;7.00;7.00;;;;;12.40;66.91;99667.06;5076405;28;45300;-66
2023/04/20 03:02:08;;;;;;;;;9.25;7.00;;;;;12.36;67.15;99670.53;5076050;28;45492;-66
2023/04/20 03:04:33;;;;;;;;;6.75;6.75;;;;;12.40;67.21;99674.94;5076685;28;45331;-68
2023/04/20 03:07:00;;;;;;;;;5.75;5.75;;;;;12.40;66.87;99667.06;5076218;28;45595;-67
2023/04/20 03:09:26;;;;;;;;;7.00;6.00;;;;;12.41;66.83;99671.44;5076460;28;45449;-71
2023/04/20 03:11:51;;;;;;;;;3.00;3.00;;;;;12.39;66.71;99662.69;5076264;28;45536;-67
2023/04/20 03:14:17;;;;;;;;;7.00;6.50;;;;;12.34;66.66;99659.16;5058064;28;45444;-71
2023/04/20 03:16:42;;;;;;;;;6.00;5.75;;;;;12.33;67.02;99660.03;5075797;28;45607;-67
2023/04/20 03:19:08;;;;;;;;;6.00;5.50;;;;;12.20;67.64;99648.56;5076476;28;45489;-67
2023/04/20 03:21:34;;;;;;;;;5.50;5.25;;;;;12.22;67.97;99653.84;5076085;28;46457;-67
2023/04/20 03:23:59;;;;;;;;;6.00;6.00;;;;;12.22;67.85;99659.06;5076031;28;45982;-67
2023/04/20 03:26:25;;;;;;;;;6.50;6.50;;;;;12.09;67.44;99640.59;5075763;28;45520;-67
2023/04/20 03:28:51;;;;;;;;;7.00;7.00;;;;;12.17;68.33;99653.78;5071915;28;45311;-67
2023/04/20 03:31:17;;;;;;;;;7.50;7.00;;;;;11.94;68.47;99648.34;5076242;28;45541;-67
2023/04/20 03:33:42;;;;;;;;;8.25;7.00;;;;;11.91;69.09;99650.91;5076314;28;45786;-67
2023/04/20 03:36:08;;;;;;;;;7.00;7.00;;;;;11.87;68.72;99642.09;5076852;28;45349;-72
2023/04/20 03:38:34;;;;;;;;;5.25;4.50;;;;;11.90;69.10;99638.69;5076073;28;45580;-68
2023/04/20 03:41:00;;;;;;;;;9.50;8.75;;;;;11.86;68.67;99632.53;5076370;28;45421;-71
2023/04/20 03:43:26;;;;;;;;;9.75;7.00;;;;;11.89;68.73;99636.94;5076429;28;45339;-68
2023/04/20 03:45:51;;;;;;;;;8.75;7.75;;;;;11.87;69.09;99651.72;5076505;28;45353;-68
2023/04/20 03:48:17;;;;;;;;;7.00;6.75;;;;;11.75;69.72;99655.06;5075523;28;45552;-70
2023/04/20 03:50:42;;;;;;;;;9.50;8.00;;;;;11.67;69.92;99654.09;5076369;28;45964;-71
2023/04/20 03:53:08;;;;;;;;;8.75;8.00;;;;;11.71;69.67;99658.50;5049714;28;45417;-69
2023/04/20 03:55:33;;;;;;;;;7.25;7.00;;;;;11.72;69.70;99655.91;5068742;28;45414;-67
2023/04/20 03:57:59;;;;;;;;;7.00;6.75;;;;;11.65;68.78;99633.16;5075819;28;45251;-69
2023/04/20 04:00:25;;;;;;;;;7.50;6.50;;;;;11.78;68.93;99644.66;5059500;28;45513;-69
2023/04/20 04:02:50;;;;;;;;;6.00;6.00;;;;;11.78;68.36;99639.41;5049870;28;45919;-68
2023/04/20 04:05:16;;;;;;;;;9.25;7.00;;;;;11.78;68.46;99636.81;5068249;28;45320;-68
2023/04/20 04:07:41;;;;;;;;;7.50;6.25;;;;;11.74;68.62;99638.50;5076109;28;45674;-67
2023/04/20 04:10:08;;;;;;;;;7.50;6.25;;;;;11.72;68.71;99640.22;5070315;28;46896;-70
2023/04/20 04:12:33;;;;;;;;;8.25;7.25;;;;;11.70;69.06;99631.47;5079377;28;45484;-68
2023/04/20 04:14:59;;;;;;;;;9.00;7.75;;;;;11.67;68.98;99630.56;5079270;28;45461;-69
2023/04/20 04:17:24;;;;;;;;;6.00;6.00;;;;;11.72;68.89;99636.75;5079064;28;45602;-70
2023/04/20 04:19:50;;;;;;;;;6.25;6.00;;;;;11.71;68.61;99638.44;5079339;28;46638;-68
2023/04/20 04:22:15;;;;;;;;;7.50;7.50;;;;;11.69;69.72;99639.31;5079256;28;45441;-66
2023/04/20 04:24:41;;;;;;;;;9.50;9.50;;;;;11.65;69.65;99638.38;5079856;28;45295;-70
2023/04/20 04:27:07;;;;;;;;;10.00;10.00;;;;;11.64;70.12;99647.13;5060833;28;45624;-67
2023/04/20 04:29:37;;;;;;;;;5.00;4.00;;;;;11.62;69.52;99646.22;5078740;28;45455;-67
2023/04/20 04:32:06;;;;;;;;;7.25;7.25;;;;;11.67;68.79;99636.66;5078616;28;45450;-71
2023/04/20 04:34:33;;;;;;;;;10.00;9.00;;;;;11.58;70.26;99647.03;5078874;28;45539;-71
2023/04/20 04:37:00;;;;;;;;;9.75;8.50;;;;;11.54;70.75;99645.25;5078845;28;45513;-69
2023/04/20 04:39:27;;;;;;;;;7.75;7.75;;;;;11.40;70.58;99629.41;5055743;28;46506;-67
2023/04/20 04:41:52;;;;;;;;;8.50;7.00;;;;;11.54;70.28;99655.72;5067736;28;45531;-69
2023/04/20 04:44:18;;;;;;;;;7.00;7.00;;;;;11.46;69.39;99628.56;5078688;28;45235;-71
2023/04/20 04:46:44;;;;;;;;;10.00;9.75;;;;;11.43;69.83;99634.66;5078995;28;46148;-67
2023/04/20 04:49:10;;;;;;;;;9.00;9.00;;;;;11.51;69.46;99645.22;5062403;28;45975;-69
2023/04/20 04:51:36;;;;;;;;;6.00;6.00;;;;;11.50;69.45;99644.34;5078050;28;45447;-66
2023/04/20 04:54:02;;;;;;;;;6.75;6.50;;;;;11.43;69.13;99633.78;5059779;28;45413;-67
2023/04/20 04:56:27;;;;;;;;;7.75;6.75;;;;;11.41;69.89;99641.59;5062840;28;45510;-69
2023/04/20 04:58:53;;;;;;;;;8.50;5.75;;;;;11.34;69.61;99645.03;5077652;28;45444;-67
2023/04/20 05:01:19;;;;;;;;;10.00;7.75;;;;;11.33;70.15;99633.66;5077703;28;45465;-66
2023/04/20 05:03:45;;;;;;;;;9.50;7.25;;;;;11.33;70.29;99636.28;5078444;28;45498;-69
2023/04/20 05:06:11;;;;;;;;;9.00;7.50;;;;;11.33;70.53;99625.81;5078224;28;45442;-68
2023/04/20 05:08:36;;;;;;;;;9.00;7.25;;;;;11.28;71.28;99624.91;5077361;28;45342;-67
2023/04/20 05:11:02;;;;;;;;;11.00;10.00;;;;;11.29;71.26;99623.16;5078172;28;45578;-69
2023/04/20 05:13:27;;;;;;;;;5.75;5.75;;;;;11.32;70.62;99624.06;5077751;28;45362;-70
2023/04/20 05:15:53;;;;;;;;;9.75;8.50;;;;;11.34;69.75;99618.88;5078188;28;45397;-71
2023/04/20 05:18:18;;;;;;;;;7.50;7.50;;;;;11.35;69.64;99631.94;5078060;28;45204;-67
2023/04/20 05:20:44;;;;;;;;;9.25;7.75;;;;;11.37;69.74;99631.09;5077499;28;45568;-67
2023/04/20 05:23:10;;;;;;;;;9.25;7.25;;;;;11.38;69.82;99627.59;5077654;28;45350;-68
2023/04/20 05:25:36;;;;;;;;;12.75;11.00;;;;;11.33;69.79;99612.75;5078434;28;45306;-66
2023/04/20 05:28:01;;;;;;;;;11.25;10.75;;;;;11.39;69.99;99622.41;5077385;28;45375;-66
2023/04/20 05:30:27;;;;;;;;;14.75;14.00;;;;;11.39;69.63;99622.41;5077722;28;45547;-67
2023/04/20 05:32:52;;;;;;;;;9.75;8.50;;;;;11.44;69.06;99618.13;5069327;28;45395;-66
2023/04/20 05:35:18;;;;;;;;;6.75;6.00;;;;;11.51;68.95;99629.50;5078441;28;45513;-66
2023/04/20 05:37:44;;;;;;;;;9.00;8.25;;;;;11.54;69.24;99633.06;5077219;28;45655;-71
2023/04/20 05:40:10;;;;;;;;;10.25;9.25;;;;;11.53;69.63;99628.66;5077532;28;45464;-66
2023/04/20 05:42:36;;;;;;;;;21.00;19.00;;;;;11.54;69.48;99638.28;5077590;28;45477;-66
2023/04/20 05:45:01;;;;;;;;;18.00;15.50;;;;;11.53;69.77;99626.03;5077672;28;45493;-66
2023/04/20 05:47:27;;;;;;;;;11.00;10.25;;;;;11.64;69.98;99628.81;5076937;28;45354;-71
2023/04/20 05:49:53;;;;;;;;;16.00;13.75;;;;;11.71;69.81;99625.38;5077497;28;45645;-66
2023/04/20 05:52:18;;;;;;;;;11.25;10.25;;;;;11.82;69.06;99635.09;5077906;28;45418;-66
2023/04/20 05:54:44;;;;;;;;;17.25;16.50;;;;;11.85;69.42;99641.22;5077863;28;45457;-66
2023/04/20 05:57:10;;;;;;;;;46.75;38.25;;;;;11.87;69.00;99643.84;5077097;28;46063;-69
2023/04/20 05:59:36;;;;;;;;;17.75;15.00;;;;;11.94;68.72;99638.72;5061416;28;46015;-66
2023/04/20 06:02:02;;;;;;;;;17.00;16.75;;;;;11.93;68.96;99623.88;5072635;28;45507;-66
2023/04/20 06:04:29;;;;;;;;;20.00;19.00;;;;;12.23;68.65;99645.09;5077558;28;45517;-66
2023/04/20 06:06:54;;;;;;;;;15.75;15.50;;;;;12.44;68.02;99647.91;5076485;28;47199;-72
2023/04/20 06:09:20;;;;;;;;;13.00;13.00;;;;;12.61;67.44;99662.88;5077720;28;45512;-66
2023/04/20 06:11:45;;;;;;;;;12.50;12.50;;;;;12.83;66.55;99667.41;5077284;28;45393;-66
2023/04/20 06:14:12;;;;;;;;;8.00;8.00;;;;;13.07;65.82;99661.44;5077415;28;45493;-66
2023/04/20 06:16:38;;;;;;;;;11.25;8.25;;;;;13.22;65.38;99655.38;5076351;28;45985;-66
2023/04/20 06:19:03;;;;;;;;;8.50;8.50;;;;;13.51;65.11;99662.56;5076599;28;45476;-66
2023/04/20 06:21:30;;;;;;;;;8.25;7.25;;;;;13.68;64.56;99671.34;5077101;28;45480;-66
2023/04/20 06:23:56;;;;;;;;;11.25;9.00;;;;;13.75;64.32;99651.25;5077661;28;45473;-66
2023/04/20 06:26:22;;;;;;;;;9.50;8.75;;;;;14.16;63.85;99671.44;5076717;28;45397;-67
2023/04/20 06:28:47;;;;;;;;;13.00;12.25;;;;;14.79;62.52;99658.34;5076866;28;45323;-67
2023/04/20 06:31:13;;;;;;;;;6.75;6.75;;;;;15.98;60.28;99661.44;5076177;28;45220;-66
2023/04/20 06:33:39;;;;;;;;;10.00;10.00;;;;;16.76;57.39;99662.59;5076552;28;45446;-66
2023/04/20 06:36:08;;;;;;;;;9.00;8.50;;;;;17.20;56.49;99648.09;5076582;28;45478;-67
2023/04/20 06:38:33;;;;;;;;;10.00;9.00;;;;;17.22;55.03;99662.13;5076916;28;45426;-67
2023/04/20 06:41:01;;;;;;;;;11.75;11.00;;;;;17.28;55.76;99655.91;5077132;28;45454;-66
2023/04/20 06:43:27;;;;;;;;;10.00;10.00;;;;;17.72;55.35;99637.78;5077037;28;45555;-66
2023/04/20 06:45:53;;;;;;;;;12.75;11.25;;;;;18.03;53.06;99652.31;5043199;27;45417;-66
2023/04/20 06:48:18;;;;;;;;;14.75;14.00;;;;;17.91;54.07;99659.56;5076380;28;45459;-71
2023/04/20 06:50:48;;;;;;;;;20.50;17.75;;;;;18.35;53.51;99665.94;5076254;28;45412;-66
2023/04/20 06:53:13;;;;;;;;;23.50;17.00;;;;;19.08;50.76;99669.13;5076457;28;45417;-67
2023/04/20 06:55:39;;;;;;;;;17.75;14.00;;;;;20.09;48.88;99660.84;5075948;28;45866;-66
2023/04/20 06:58:05;;;;;;;;;18.25;14.75;;;;;21.86;45.24;99664.13;5076200;28;45938;-66
2023/04/20 07:00:30;;;;;;;;;12.50;11.50;;;;;23.15;43.14;99656.41;5076052;28;45373;-67
2023/04/20 07:02:56;;;;;;;;;12.25;9.75;;;;;24.77;39.62;99667.88;5074549;28;45420;-66
2023/04/20 07:05:22;;;;;;;;;12.50;11.75;;;;;25.89;37.64;99666.50;5074948;28;46166;-66
2023/04/20 07:07:47;;;;;;;;;9.33;9.00;;;;;26.42;35.69;99668.38;5075881;28;45535;-67
2023/04/20 07:10:14;;;;;;;;;9.00;8.33;;;;;27.39;35.48;99666.16;5074956;28;45474;-67
2023/04/20 07:12:40;;;;;;;;;9.33;9.00;;;;;28.03;33.13;99658.22;5075775;28;45386;-67
2023/04/20 07:15:07;;;;;;;;;9.00;8.00;;;;;28.23;32.66;99654.41;5075328;28;45405;-68
2023/04/20 07:17:34;;;;;;;;;8.33;8.33;;;;;28.80;31.56;99643.06;5072751;28;45292;-66
2023/04/20 07:20:07;;;;;;;;;8.00;8.00;;;;;29.27;32.18;99656.31;5061814;28;45846;-70
2023/04/20 07:22:37;;;;;;;;;44.50;36.75;;;;;30.46;29.35;99664.94;5075785;28;45470;-66
2023/04/20 07:25:04;;;;;;;;;29.50;27.50;;;;;30.65;30.23;99664.56;5075287;28;45447;-66
2023/04/20 07:27:34;;;;;;;;;30.75;28.25;;;;;30.80;30.60;99659.97;5075032;28;45427;-68
2023/04/20 07:30:00;;;;;;;;;13.67;13.00;;;;;30.98;29.02;99645.25;5061653;28;45502;-67
2023/04/20 07:32:26;;;;;;;;;21.67;20.00;;;;;30.69;29.19;99648.06;5075157;28;45500;-67
2023/04/20 07:34:51;;;;;;;;;5.00;5.00;;;;;30.52;29.02;99635.75;5075083;28;45719;-67
2023/04/20 07:37:18;;;;;;;;;7.00;6.33;;;;;29.81;30.80;99604.50;5074413;28;45510;-70
2023/04/20 07:39:44;;;;;;;;;8.00;7.00;;;;;29.93;30.12;99617.16;5073033;28;45542;-66
2023/04/20 07:42:09;;;;;;;;;8.67;7.00;;;;;29.23;31.31;99605.53;5075491;28;45430;-68
2023/04/20 07:44:35;;;;;;;;;8.33;7.33;;;;;28.48;32.56;99619.78;5077704;27;45619;-66
2023/04/20 07:47:02;;;;;;;;;8.67;8.33;;;;;27.87;33.19;99618.81;5078336;28;45568;-69
2023/04/20 07:49:28;;;;;;;;;10.33;9.00;;;;;27.27;33.92;99618.56;5072643;28;45564;-67
2023/04/20 07:51:54;;;;;;;;;7.33;6.67;;;;;27.19;34.69;99643.91;5072359;27;45402;-67
2023/04/20 07:54:19;;;;;;;;;8.67;8.00;;;;;27.38;34.05;99635.81;5071941;28;45435;-67
2023/04/20 07:56:45;;;;;;;;;8.00;7.67;;;;;28.29;33.15;99614.66;5078478;28;45623;-67
2023/04/20 07:59:10;;;;;;;;;10.33;9.00;;;;;28.64;32.88;99613.56;5075059;28;45276;-68
2023/04/20 08:01:36;;;;;;;;;8.67;7.67;;;;;28.91;32.01;99611.03;5061530;28;45660;-66
2023/04/20 08:04:02;;;;;;;;;8.33;7.33;;;;;29.33;31.11;99601.28;5072974;28;46005;-67
2023/04/20 08:06:27;;;;;;;;;9.00;9.00;;;;;29.68;30.91;99604.41;5078093;28;45557;-66
2023/04/20 08:08:53;;;;;;;;;6.67;6.00;;;;;31.17;29.16;99600.81;5062298;28;45333;-67
2023/04/20 08:11:19;;;;;;;;;7.00;5.67;;;;;32.29;28.00;99598.94;5067476;28;45473;-70
2023/04/20 08:13:44;;;;;;;;;8.33;7.00;;;;;33.39;27.04;99604.03;5077309;28;45494;-69
2023/04/20 08:16:10;;;;;;;;;6.33;6.33;;;;;34.21;25.56;99607.25;5077814;28;45487;-67
2023/04/20 08:18:35;;;;;;;;;8.00;7.33;;;;;34.73;24.54;99612.84;5077326;28;45556;-68
2023/04/20 08:21:01;;;;;;;;;7.67;7.67;;;;;35.47;24.40;99609.16;5077996;28;45603;-69
2023/04/20 08:23:27;;;;;;;;;8.00;7.00;;;;;35.88;24.39;99611.91;5077465;27;45597;-67
2023/04/20 08:25:55;;;;;;;;;8.00;7.67;;;;;36.46;24.04;99609.25;5074980;28;45520;-69
2023/04/20 08:28:23;;;;;;;;;6.33;6.00;;;;;37.27;23.47;99613.47;5075553;28;45868;-69
2023/04/20 08:30:50;;;;;;;;;6.67;6.67;;;;;37.65;22.93;99607.03;5077237;28;45607;-69
2023/04/20 08:33:16;;;;;;;;;6.00;6.00;;;;;37.74;23.31;99617.00;5074342;28;46030;-72
2023/04/20 08:35:42;;;;;;;;;4.00;4.00;;;;;38.04;22.52;99617.69;5057674;28;45496;-68
2023/04/20 08:38:08;;;;;;;;;8.67;8.67;;;;;38.51;22.61;99619.38;5076604;27;45493;-69
2023/04/20 08:40:36;;;;;;;;;6.67;6.67;;;;;38.46;21.80;99628.03;5076248;27;45515;-68
2023/04/20 08:43:01;;;;;;;;;9.33;9.00;;;;;38.47;21.64;99620.72;5075230;28;46283;-69
2023/04/20 08:45:29;;;;;;;;;7.67;7.67;;;;;38.51;21.67;99627.56;5077998;28;45838;-70
2023/04/20 08:47:57;;;;;;;;;8.33;8.33;;;;;38.67;20.79;99614.06;5077091;28;45477;-69
2023/04/20 08:50:22;;;;;;;;;8.00;7.67;;;;;38.26;21.25;99615.56;5075228;28;45421;-73
2023/04/20 08:52:48;;;;;;;;;5.67;5.67;;;;;38.26;21.68;99610.09;5076049;27;45431;-68
2023/04/20 08:55:18;;;;;;;;;7.00;7.00;;;;;38.73;22.01;99623.50;5075883;28;45450;-69
2023/04/20 08:57:44;;;;;;;;;5.00;5.00;;;;;39.09;21.16;99607.06;5077774;28;45410;-68
2023/04/20 09:00:10;;;;;;;;;5.33;5.33;;;;;39.42;21.30;99624.53;5064780;28;45311;-68
2023/04/20 09:02:47;;;;;;;;;13.00;13.00;;;;;39.47;19.93;99619.44;5074617;28;45507;-68
2023/04/20 09:05:12;;;;;;;;;6.00;6.00;;;;;39.17;20.23;99612.59;5060340;28;45430;-68
2023/04/20 09:07:38;;;;;;;;;7.33;6.67;;;;;38.92;20.80;99612.41;5070562;28;45346;-68
2023/04/20 09:10:04;;;;;;;;;9.33;9.33;;;;;39.13;20.49;99622.97;5077640;28;45453;-68
2023/04/20 09:12:41;;;;;;;;;6.00;6.00;;;;;39.11;20.51;99632.34;5077600;28;45417;-69
2023/04/20 09:15:08;;;;;;;;;8.00;7.33;;;;;39.10;20.66;99636.13;5063095;28;45473;-69
2023/04/20 09:17:35;;;;;;;;;7.00;6.67;;;;;38.49;21.16;99635.91;5077827;28;45512;-68
2023/04/20 09:20:04;;;;;;;;;7.00;5.67;;;;;38.69;19.49;99631.16;5078549;27;45595;-68
2023/04/20 09:22:35;;;;;;;;;8.00;7.00;;;;;38.87;20.86;99631.13;5077392;28;45844;-69
2023/04/20 09:25:17;;;;;;;;;6.67;5.67;;;;;39.05;20.52;99633.00;5077444;28;45383;-69
2023/04/20 09:27:57;;;;;;;;;5.67;5.67;;;;;38.81;21.47;99634.50;5058652;28;45515;-70
2023/04/20 09:30:23;;;;;;;;;7.33;7.33;;;;;38.99;21.01;99639.94;5075649;28;45567;-69
2023/04/20 09:33:00;;;;;;;;;8.33;8.33;;;;;39.13;20.61;99650.28;5076451;28;45931;-69
2023/04/20 09:35:25;;;;;;;;;8.00;8.00;;;;;39.32;20.33;99649.22;5058210;28;45572;-69
2023/04/20 09:37:51;;;;;;;;;9.00;8.67;;;;;39.29;20.90;99633.13;5076320;28;45476;-70
2023/04/20 09:40:18;;;;;;;;;12.00;12.00;;;;;39.61;20.48;99641.72;5058064;28;45701;-68
2023/04/20 09:42:45;;;;;;;;;15.33;14.67;;;;;39.43;20.66;99648.09;5076251;28;45460;-71
2023/04/20 09:45:13;;;;;;;;;9.67;8.00;;;;;39.22;20.59;99631.22;5076502;28;45579;-69
2023/04/20 09:47:41;;;;;;;;;8.00;8.00;;;;;39.35;20.68;99640.69;5076559;28;45560;-69
2023/04/20 09:50:10;;;;;;;;;11.33;11.00;;;;;39.07;20.79;99639.16;5077120;28;45445;-69
2023/04/20 09:52:37;;;;;;;;;8.67;8.00;;;;;39.11;20.55;99643.28;5077238;28;45561;-68
2023/04/20 09:55:08;;;;;;;;;8.33;8.33;;;;;38.95;20.75;99635.78;5076795;28;45488;-68
2023/04/20 09:57:34;;;;;;;;;10.67;10.00;;;;;38.79;21.05;99634.66;5076806;28;45521;-69
2023/04/20 10:00:01;;;;;;;;;9.00;8.00;;;;;38.62;21.32;99642.84;5077568;28;45670;-70
2023/04/20 10:02:26;;;;;;;;;9.67;9.67;;;;;38.53;20.87;99641.94;5076361;28;45333;-69
2023/04/20 10:04:56;;;;;;;;;8.00;8.00;;;;;38.46;21.20;99638.97;5076672;28;45501;-69
2023/04/20 10:07:26;;;;;;;;;11.00;10.00;;;;;38.29;21.31;99632.47;5075902;28;45696;-69
2023/04/20 10:10:09;;;;;;;;;8.33;8.33;;;;;37.65;21.22;99631.56;5075961;28;45343;-71
2023/04/20 10:12:52;;;;;;;;;11.33;11.00;;;;;37.48;21.72;99637.75;5068935;27;45328;-70
2023/04/20 10:15:19;;;;;;;;;11.67;11.67;;;;;37.34;21.61;99631.78;5075444;28;45468;-71
2023/04/20 10:17:44;;;;;;;;;15.00;15.00;;;;;36.93;21.95;99633.00;5076417;28;45511;-68
2023/04/20 10:20:26;;;;;;;;;9.67;9.33;;;;;36.65;22.27;99638.38;5076393;28;45485;-69
2023/04/20 10:22:53;;;;;;;;;9.67;9.67;;;;;36.81;22.80;99629.63;5075414;28;46201;-70
2023/04/20 10:25:26;;;;;;;;;9.00;9.00;;;;;36.89;22.69;99631.56;5060467;28;45462;-69
2023/04/20 10:27:53;;;;;;;;;9.00;9.00;;;;;36.81;22.18;99629.63;5076318;28;45331;-68
2023/04/20 10:30:19;;;;;;;;;6.00;5.33;;;;;36.68;22.54;99629.03;5076582;28;45790;-70
2023/04/20 10:32:45;;;;;;;;;9.00;9.00;;;;;36.37;22.99;99637.31;5055916;28;47685;-69
2023/04/20 10:35:12;;;;;;;;;10.33;10.33;;;;;36.30;22.93;99623.41;5075721;28;45591;-71
2023/04/20 10:37:49;;;;;;;;;12.33;11.33;;;;;36.09;22.99;99631.66;5076840;28;45397;-69
2023/04/20 10:40:16;;;;;;;;;9.33;9.33;;;;;35.54;23.61;99632.06;5076742;27;45466;-69
2023/04/20 10:42:45;;;;;;;;;9.67;8.67;;;;;35.53;23.91;99634.91;5075336;28;45391;-70
2023/04/20 10:45:12;;;;;;;;;10.00;9.67;;;;;35.18;24.09;99638.91;5074885;28;45438;-69
2023/04/20 10:47:39;;;;;;;;;10.33;10.33;;;;;34.96;24.08;99635.31;5076090;28;46225;-72
2023/04/20 10:50:11;;;;;;;;;12.00;11.00;;;;;34.23;24.46;99577.31;5076670;28;45480;-69
2023/04/20 10:52:39;;;;;;;;;11.00;11.00;;;;;34.15;24.86;99631.31;5076034;28;46197;-71
2023/04/20 10:55:06;;;;;;;;;10.00;10.00;;;;;33.70;25.33;99615.97;5076869;28;45436;-69
2023/04/20 10:57:32;;;;;;;;;10.00;10.00;;;;;33.66;25.42;99630.75;5076478;27;45488;-69
2023/04/20 10:59:58;;;;;;;;;9.67;9.00;;;;;33.63;25.58;99634.56;5076024;28;45628;-68
2023/04/20 11:02:24;;;;;;;;;9.00;9.00;;;;;33.42;26.09;99620.00;5076599;27;45559;-70
2023/04/20 11:04:50;;;;;;;;;10.33;10.33;;;;;33.31;26.62;99634.44;5075820;28;45512;-69
2023/04/20 11:07:16;;;;;;;;;9.33;9.33;;;;;32.99;26.78;99628.78;5058541;28;45324;-73
2023/04/20 11:09:42;;;;;;;;;12.33;9.00;;;;;32.48;27.04;99624.56;5076015;28;45615;-70
2023/04/20 11:12:10;;;;;;;;;12.00;12.00;;;;;31.93;27.81;99626.81;5075754;27;45364;-69
2023/04/20 11:15:01;;;;;;;;;7.67;6.33;;;;;31.56;28.33;99629.50;5075302;28;45533;-70
2023/04/20 11:17:34;;;;;;;;;13.67;12.00;;;;;31.40;28.72;99627.03;5064881;28;45517;-69
2023/04/20 11:20:15;;;;;;;;;10.33;10.33;;;;;31.19;28.54;99607.81;5078152;28;45446;-69
2023/04/20 11:22:42;;;;;;;;;10.33;10.00;;;;;30.82;29.79;99621.16;5059095;28;46275;-70
2023/04/20 11:25:10;;;;;;;;;12.00;10.33;;;;;30.57;29.81;99626.50;5079455;28;45363;-71
2023/04/20 11:27:37;;;;;;;;;13.67;12.67;;;;;30.38;30.52;99618.78;5079395;28;45578;-69